createdAt,value
2018-03-06T00:01:02.733Z,6.23
2018-03-06T00:03:30.535Z,6.20
2018-03-06T00:05:58.093Z,6.18
2018-03-06T00:08:25.658Z,6.16
2018-03-06T00:10:53.165Z,6.14
2018-03-06T00:13:20.761Z,6.14
2018-03-06T00:15:48.302Z,6.09
2018-03-06T00:18:15.834Z,6.10
2018-03-06T00:20:43.465Z,6.04
2018-03-06T00:23:11.000Z,5.98
2018-03-06T00:25:38.539Z,5.98
2018-03-06T00:28:06.088Z,5.98
2018-03-06T00:30:33.626Z,6.00
2018-03-06T00:33:01.167Z,5.97
2018-03-06T00:35:28.725Z,5.95
2018-03-06T00:37:56.262Z,5.93
2018-03-06T00:40:23.801Z,5.89
2018-03-06T00:42:51.350Z,5.87
2018-03-06T00:45:19.850Z,5.82
2018-03-06T00:47:47.409Z,5.83
2018-03-06T00:50:14.981Z,5.80
2018-03-06T00:52:42.515Z,5.75
2018-03-06T00:55:10.102Z,5.70
2018-03-06T00:57:37.634Z,5.56
2018-03-06T01:00:05.214Z,5.56
2018-03-06T01:02:32.773Z,5.53
2018-03-06T01:05:00.305Z,5.47
2018-03-06T01:07:28.214Z,5.45
2018-03-06T01:09:55.742Z,5.45
2018-03-06T01:12:23.302Z,5.38
2018-03-06T01:14:50.862Z,5.40
2018-03-06T01:17:18.398Z,5.34
2018-03-06T01:19:45.947Z,5.32
2018-03-06T01:22:13.494Z,5.30
2018-03-06T01:24:41.059Z,5.26
2018-03-06T01:27:09.111Z,5.24
2018-03-06T01:29:36.650Z,5.14
2018-03-06T01:32:04.214Z,5.21
2018-03-06T01:34:31.745Z,5.17
2018-03-06T01:36:59.320Z,5.18
2018-03-06T01:39:26.866Z,5.19
2018-03-06T01:41:54.406Z,5.18
2018-03-06T01:44:22.030Z,5.13
2018-03-06T01:46:49.582Z,5.14
2018-03-06T01:49:17.297Z,5.06
2018-03-06T01:51:56.610Z,5.05
2018-03-06T01:54:24.169Z,5.04
2018-03-06T01:56:51.697Z,4.95
2018-03-06T01:59:19.617Z,4.92
2018-03-06T02:01:47.157Z,4.85
2018-03-06T02:04:14.693Z,4.85
2018-03-06T02:06:42.258Z,4.81
2018-03-06T02:09:09.805Z,4.74
2018-03-06T02:11:37.606Z,4.72
2018-03-06T02:14:05.142Z,4.64
2018-03-06T02:16:32.681Z,4.65
2018-03-06T02:19:00.250Z,4.63
2018-03-06T02:21:29.022Z,4.66
2018-03-06T02:23:56.745Z,4.60
2018-03-06T02:26:24.289Z,4.56
2018-03-06T02:28:51.834Z,4.45
2018-03-06T02:31:19.393Z,4.52
2018-03-06T02:33:46.930Z,4.50
2018-03-06T02:36:14.845Z,4.48
2018-03-06T02:38:42.745Z,4.37
2018-03-06T02:41:10.272Z,4.32
2018-03-06T02:43:37.845Z,4.06
2018-03-06T02:46:12.392Z,3.96
2018-03-06T02:48:39.986Z,4.02
2018-03-06T02:51:07.521Z,4.12
2018-03-06T02:53:35.437Z,3.92
2018-03-06T02:56:02.978Z,3.96
2018-03-06T02:58:30.512Z,3.81
2018-03-06T03:00:58.069Z,3.83
2018-03-06T03:03:25.613Z,3.91
2018-03-06T03:05:53.173Z,3.89
2018-03-06T03:08:20.787Z,3.77
2018-03-06T03:10:48.278Z,3.76
2018-03-06T03:13:15.843Z,3.75
2018-03-06T03:15:43.370Z,3.74
2018-03-06T03:18:10.934Z,3.65
2018-03-06T03:20:38.487Z,3.74
2018-03-06T03:23:06.018Z,3.61
2018-03-06T03:25:33.592Z,3.62
2018-03-06T03:28:01.118Z,3.64
2018-03-06T03:30:28.683Z,3.71
2018-03-06T03:32:56.250Z,3.61
2018-03-06T03:35:23.790Z,3.69
2018-03-06T03:37:51.355Z,3.67
2018-03-06T03:40:18.886Z,3.71
2018-03-06T03:42:46.764Z,3.69
2018-03-06T03:45:14.348Z,3.69
2018-03-06T03:47:41.885Z,3.66
2018-03-06T03:50:09.450Z,3.57
2018-03-06T03:52:36.978Z,3.59
2018-03-06T03:55:04.543Z,3.60
2018-03-06T03:57:32.129Z,3.55
2018-03-06T03:59:59.669Z,3.50
2018-03-06T04:02:27.244Z,3.47
2018-03-06T04:04:54.786Z,3.45
2018-03-06T04:07:22.353Z,3.49
2018-03-06T04:09:49.923Z,3.44
2018-03-06T04:12:17.466Z,3.44
2018-03-06T04:14:45.019Z,3.48
2018-03-06T04:17:12.607Z,3.47
2018-03-06T04:19:40.429Z,3.35
2018-03-06T04:22:08.003Z,3.42
2018-03-06T04:24:35.531Z,3.40
2018-03-06T04:27:03.102Z,3.45
2018-03-06T04:29:30.642Z,3.37
2018-03-06T04:31:58.629Z,3.43
2018-03-06T04:34:26.170Z,3.46
2018-03-06T04:36:53.725Z,3.42
2018-03-06T04:39:21.281Z,3.48
2018-03-06T04:41:48.822Z,3.34
2018-03-06T04:44:16.697Z,3.43
2018-03-06T04:46:44.246Z,3.45
2018-03-06T04:49:11.793Z,3.50
2018-03-06T04:51:39.864Z,3.43
2018-03-06T04:54:07.406Z,3.47
2018-03-06T04:56:34.978Z,3.48
2018-03-06T04:59:02.522Z,3.48
2018-03-06T05:01:30.067Z,3.44
2018-03-06T05:03:57.625Z,3.38
2018-03-06T05:06:25.213Z,3.34
2018-03-06T05:08:52.941Z,3.22
2018-03-06T05:11:20.477Z,3.29
2018-03-06T05:13:48.032Z,3.38
2018-03-06T05:16:15.594Z,3.45
2018-03-06T05:18:43.129Z,3.34
2018-03-06T05:21:10.715Z,3.41
2018-03-06T05:23:38.258Z,3.50
2018-03-06T05:26:05.805Z,3.47
2018-03-06T05:28:33.373Z,3.40
2018-03-06T05:31:00.918Z,3.49
2018-03-06T05:33:28.739Z,3.45
2018-03-06T05:35:56.261Z,3.45
2018-03-06T05:38:23.801Z,3.46
2018-03-06T05:40:51.365Z,3.52
2018-03-06T05:43:18.943Z,3.53
2018-03-06T05:45:46.518Z,3.40
2018-03-06T05:48:14.081Z,3.43
2018-03-06T05:50:41.629Z,3.50
2018-03-06T05:53:09.198Z,3.54
2018-03-06T05:55:36.742Z,3.47
2018-03-06T05:58:04.747Z,3.49
2018-03-06T06:00:32.287Z,3.48
2018-03-06T06:02:59.930Z,3.49
2018-03-06T06:05:27.497Z,3.43
2018-03-06T06:07:55.940Z,3.53
2018-03-06T06:10:23.514Z,3.53
2018-03-06T06:12:51.062Z,3.48
2018-03-06T06:15:18.607Z,3.39
2018-03-06T06:17:46.160Z,3.59
2018-03-06T06:20:13.698Z,3.59
2018-03-06T06:22:41.465Z,3.60
2018-03-06T06:25:08.986Z,3.64
2018-03-06T06:27:36.510Z,3.71
2018-03-06T06:30:04.062Z,3.82
2018-03-06T06:32:31.587Z,3.90
2018-03-06T06:34:59.562Z,3.88
2018-03-06T06:37:27.085Z,3.97
2018-03-06T06:39:54.675Z,3.91
2018-03-06T06:42:22.223Z,4.03
2018-03-06T06:44:49.761Z,4.11
2018-03-06T06:47:17.479Z,4.12
2018-03-06T06:49:44.999Z,4.18
2018-03-06T06:52:12.534Z,4.16
2018-03-06T06:54:40.095Z,4.32
2018-03-06T06:57:07.617Z,4.44
2018-03-06T06:59:35.178Z,4.61
2018-03-06T07:02:02.694Z,4.61
2018-03-06T07:04:30.213Z,4.59
2018-03-06T07:06:57.778Z,4.74
2018-03-06T07:09:25.356Z,4.89
2018-03-06T07:11:53.049Z,4.91
2018-03-06T07:14:20.562Z,5.05
2018-03-06T07:16:48.085Z,5.10
2018-03-06T07:19:15.654Z,5.04
2018-03-06T07:21:43.179Z,5.22
2018-03-06T07:24:10.957Z,5.34
2018-03-06T07:26:38.479Z,5.49
2018-03-06T07:29:06.012Z,5.48
2018-03-06T07:31:33.560Z,5.55
2018-03-06T07:34:01.110Z,5.70
2018-03-06T07:36:28.922Z,5.87
2018-03-06T07:38:56.443Z,5.93
2018-03-06T07:41:23.966Z,6.16
2018-03-06T07:43:51.522Z,6.23
2018-03-06T07:46:19.041Z,6.19
2018-03-06T07:48:46.611Z,6.16
2018-03-06T07:51:14.161Z,6.30
2018-03-06T07:53:41.686Z,6.44
2018-03-06T07:56:09.238Z,6.59
2018-03-06T07:58:36.754Z,6.78
2018-03-06T08:01:04.445Z,6.99
2018-03-06T08:03:32.029Z,7.00
2018-03-06T08:05:59.553Z,7.32
2018-03-06T08:08:27.098Z,7.50
2018-03-06T08:10:54.617Z,7.82
2018-03-06T08:13:22.165Z,7.90
2018-03-06T08:15:49.805Z,8.24
2018-03-06T08:18:17.325Z,8.13
2018-03-06T08:20:44.913Z,8.59
2018-03-06T08:23:12.435Z,8.70
2018-03-06T08:25:40.140Z,8.75
2018-03-06T08:28:07.677Z,8.79
2018-03-06T08:30:35.225Z,8.94
2018-03-06T08:33:02.790Z,8.87
2018-03-06T08:35:30.530Z,8.66
2018-03-06T08:37:58.089Z,8.38
2018-03-06T08:40:25.606Z,8.78
2018-03-06T08:42:53.130Z,9.32
2018-03-06T08:45:20.690Z,9.48
2018-03-06T08:47:48.226Z,10.02
2018-03-06T08:50:16.249Z,10.31
2018-03-06T08:52:43.774Z,10.24
2018-03-06T08:55:11.305Z,10.57
2018-03-06T08:57:38.865Z,10.67
2018-03-06T09:00:06.400Z,11.02
2018-03-06T09:02:34.145Z,10.55
2018-03-06T09:05:01.691Z,10.51
2018-03-06T09:07:29.226Z,10.96
2018-03-06T09:09:56.782Z,11.00
2018-03-06T09:12:24.309Z,11.04
2018-03-06T09:14:52.358Z,11.20
2018-03-06T09:17:19.964Z,11.52
2018-03-06T09:19:47.473Z,11.40
2018-03-06T09:22:15.070Z,11.48
2018-03-06T09:24:42.595Z,11.43
2018-03-06T09:27:10.657Z,11.86
2018-03-06T09:29:38.288Z,12.15
2018-03-06T09:32:05.817Z,12.18
2018-03-06T09:34:33.370Z,12.71
2018-03-06T09:37:00.914Z,13.42
2018-03-06T09:39:28.661Z,13.97
2018-03-06T09:41:56.190Z,14.98
2018-03-06T09:44:23.732Z,15.14
2018-03-06T09:46:51.295Z,16.07
2018-03-06T09:49:18.823Z,16.03
2018-03-06T09:51:46.552Z,16.38
2018-03-06T09:54:14.073Z,16.83
2018-03-06T09:56:41.602Z,17.29
2018-03-06T09:59:09.153Z,18.11
2018-03-06T10:01:36.686Z,18.63
2018-03-06T10:04:04.243Z,18.73
2018-03-06T10:06:31.766Z,18.52
2018-03-06T10:08:59.290Z,19.36
2018-03-06T10:11:26.842Z,19.25
2018-03-06T10:13:54.369Z,18.98
2018-03-06T10:16:22.067Z,18.39
2018-03-06T10:18:49.628Z,17.98
2018-03-06T10:21:17.149Z,18.26
2018-03-06T10:23:45.140Z,17.57
2018-03-06T10:26:12.679Z,17.87
2018-03-06T10:28:41.504Z,17.78
2018-03-06T10:31:09.068Z,17.71
2018-03-06T10:33:36.566Z,18.37
2018-03-06T10:36:04.126Z,17.44
2018-03-06T10:38:31.691Z,17.84
2018-03-06T10:40:59.257Z,17.69
2018-03-06T10:43:26.786Z,17.73
2018-03-06T10:45:54.314Z,17.96
2018-03-06T10:48:21.854Z,18.32
2018-03-06T10:50:49.380Z,18.53
2018-03-06T10:53:16.987Z,18.98
2018-03-06T10:55:44.490Z,19.03
2018-03-06T10:58:12.015Z,18.66
2018-03-06T11:00:45.077Z,18.71
2018-03-06T11:03:12.597Z,18.26
2018-03-06T11:05:40.298Z,17.94
2018-03-06T11:08:07.861Z,16.92
2018-03-06T11:10:35.373Z,17.54
2018-03-06T11:13:02.930Z,17.16
2018-03-06T11:15:30.602Z,17.30
2018-03-06T11:17:58.384Z,17.46
2018-03-06T11:20:25.914Z,17.49
2018-03-06T11:22:53.507Z,17.20
2018-03-06T11:25:21.057Z,17.01
2018-03-06T11:27:48.582Z,17.29
2018-03-06T11:30:16.311Z,17.28
2018-03-06T11:35:34.734Z,17.69
2018-03-06T11:38:02.261Z,17.62
2018-03-06T11:40:29.782Z,17.65
2018-03-06T11:42:57.339Z,17.41
2018-03-06T11:45:24.869Z,17.80
2018-03-06T11:47:52.570Z,17.91
2018-03-06T11:50:20.247Z,17.95
2018-03-06T11:52:47.786Z,17.99
2018-03-06T11:55:15.374Z,18.15
2018-03-06T11:57:42.899Z,17.52
2018-03-06T12:00:10.454Z,17.69
2018-03-06T12:02:37.987Z,17.49
2018-03-06T12:05:06.524Z,17.22
2018-03-06T12:07:34.189Z,17.05
2018-03-06T12:10:02.078Z,17.04
2018-03-06T12:12:29.626Z,17.12
2018-03-06T12:14:57.299Z,17.29
2018-03-06T12:17:24.818Z,17.38
2018-03-06T12:19:52.362Z,17.34
2018-03-06T12:22:19.886Z,17.06
2018-03-06T12:24:47.598Z,17.51
2018-03-06T12:27:15.134Z,17.23
2018-03-06T12:29:42.714Z,17.61
2018-03-06T12:32:10.290Z,17.01
2018-03-06T12:34:37.819Z,17.08
2018-03-06T12:37:05.694Z,17.49
2018-03-06T12:39:33.246Z,17.11
2018-03-06T12:42:00.779Z,17.18
2018-03-06T12:44:28.335Z,17.10
2018-03-06T12:46:55.870Z,16.98
2018-03-06T12:49:23.799Z,16.86
2018-03-06T12:51:51.335Z,17.07
2018-03-06T12:54:18.868Z,16.61
2018-03-06T12:56:46.427Z,16.93
2018-03-06T12:59:13.985Z,17.32
2018-03-06T13:01:42.688Z,17.63
2018-03-06T13:04:10.236Z,17.52
2018-03-06T13:06:37.934Z,17.45
2018-03-06T13:09:05.741Z,17.43
2018-03-06T13:11:33.273Z,16.06
2018-03-06T13:14:01.031Z,16.64
2018-03-06T13:16:28.572Z,16.82
2018-03-06T13:18:56.105Z,16.97
2018-03-06T13:21:23.662Z,17.25
2018-03-06T13:23:51.236Z,17.07
2018-03-06T13:26:18.805Z,17.28
2018-03-06T13:28:46.338Z,17.26
2018-03-06T13:31:13.883Z,16.98
2018-03-06T13:33:41.444Z,17.03
2018-03-06T13:36:08.983Z,16.83
2018-03-06T13:38:36.550Z,17.08
2018-03-06T13:41:04.072Z,16.95
2018-03-06T13:43:31.593Z,16.94
2018-03-06T13:45:59.140Z,16.93
2018-03-06T13:48:26.662Z,16.43
2018-03-06T13:50:54.238Z,16.16
2018-03-06T13:53:21.773Z,16.40
2018-03-06T13:55:49.302Z,16.40
2018-03-06T13:58:16.882Z,16.15
2018-03-06T14:00:44.417Z,16.29
2018-03-06T14:03:12.086Z,16.38
2018-03-06T14:05:39.606Z,16.53
2018-03-06T14:08:07.127Z,16.29
2018-03-06T14:10:34.678Z,16.27
2018-03-06T14:13:02.211Z,16.43
2018-03-06T14:15:30.245Z,16.58
2018-03-06T14:17:57.778Z,16.09
2018-03-06T14:20:25.321Z,16.11
2018-03-06T14:22:53.086Z,16.10
2018-03-06T14:25:20.609Z,15.92
2018-03-06T14:27:48.163Z,15.72
2018-03-06T14:30:15.682Z,15.84
2018-03-06T14:32:43.206Z,15.90
2018-03-06T14:35:10.758Z,15.84
2018-03-06T14:37:38.294Z,15.99
2018-03-06T14:40:06.014Z,16.08
2018-03-06T14:42:33.554Z,15.98
2018-03-06T14:45:01.361Z,15.99
2018-03-06T14:47:28.993Z,16.03
2018-03-06T14:49:56.544Z,15.86
2018-03-06T14:52:24.447Z,15.74
2018-03-06T14:54:53.132Z,15.67
2018-03-06T14:57:20.674Z,15.65
2018-03-06T14:59:48.304Z,15.62
2018-03-06T15:02:15.840Z,15.48
2018-03-06T15:04:43.408Z,15.43
2018-03-06T15:07:11.743Z,15.34
2018-03-06T15:09:39.512Z,15.10
2018-03-06T15:12:07.173Z,15.12
2018-03-06T15:14:34.814Z,15.09
2018-03-06T15:17:03.010Z,15.11
2018-03-06T15:19:30.671Z,14.93
2018-03-06T15:21:58.532Z,14.82
2018-03-06T15:24:26.506Z,14.55
2018-03-06T15:26:54.257Z,14.66
2018-03-06T15:29:22.754Z,14.68
2018-03-06T15:31:50.515Z,14.62
2018-03-06T15:34:18.382Z,14.60
2018-03-06T15:36:46.351Z,14.66
2018-03-06T15:39:14.217Z,14.51
2018-03-06T15:41:42.515Z,14.39
2018-03-06T15:44:10.359Z,14.38
2018-03-06T15:46:38.044Z,14.33
2018-03-06T15:49:05.785Z,14.36
2018-03-06T15:51:33.538Z,14.20
2018-03-06T15:54:01.825Z,14.16
2018-03-06T15:56:29.898Z,14.14
2018-03-06T15:58:57.468Z,14.08
2018-03-06T16:01:25.426Z,13.93
2018-03-06T16:03:53.164Z,14.04
2018-03-06T16:06:20.928Z,13.98
2018-03-06T16:08:48.616Z,13.97
2018-03-06T16:11:16.278Z,13.86
2018-03-06T16:13:43.880Z,13.78
2018-03-06T16:16:11.588Z,13.69
2018-03-06T16:18:39.461Z,13.56
2018-03-06T16:21:07.236Z,13.31
2018-03-06T16:23:35.000Z,13.28
2018-03-06T16:26:02.761Z,13.22
2018-03-06T16:28:30.630Z,13.09
2018-03-06T16:30:59.110Z,13.05
2018-03-06T16:33:26.918Z,12.90
2018-03-06T16:35:54.717Z,12.82
2018-03-06T16:38:22.607Z,12.57
2018-03-06T16:40:50.265Z,12.49
2018-03-06T16:43:18.235Z,12.54
2018-03-06T16:45:46.354Z,12.48
2018-03-06T16:48:14.682Z,12.32
2018-03-06T16:50:42.550Z,12.18
2018-03-06T16:53:10.928Z,12.09
2018-03-06T16:55:39.273Z,11.98
2018-03-06T16:58:07.144Z,11.92
2018-03-06T17:00:35.041Z,11.86
2018-03-06T17:03:03.114Z,11.71
2018-03-06T17:05:31.387Z,11.55
2018-03-06T17:07:59.356Z,11.41
2018-03-06T17:10:28.145Z,11.28
2018-03-06T17:12:55.996Z,11.19
2018-03-06T17:15:23.979Z,11.07
2018-03-06T17:17:51.847Z,10.92
2018-03-06T17:20:19.919Z,10.79
2018-03-06T17:22:48.262Z,10.66
2018-03-06T17:25:16.470Z,10.53
2018-03-06T17:27:45.124Z,10.45
2018-03-06T17:30:12.988Z,10.38
2018-03-06T17:32:40.993Z,10.31
2018-03-06T17:35:11.724Z,10.26
2018-03-06T17:37:40.139Z,10.20
2018-03-06T17:40:08.072Z,10.16
2018-03-06T17:42:36.659Z,10.07
2018-03-06T17:45:04.623Z,10.01
2018-03-06T17:47:32.722Z,9.91
2018-03-06T17:50:00.622Z,9.81
2018-03-06T17:52:28.735Z,9.82
2018-03-06T17:54:56.584Z,9.78
2018-03-06T17:57:24.877Z,9.72
2018-03-06T17:59:52.744Z,9.65
2018-03-06T18:02:20.815Z,9.60
2018-03-06T18:04:48.784Z,9.51
2018-03-06T18:07:17.777Z,9.57
2018-03-06T18:09:46.770Z,9.57
2018-03-06T18:12:15.557Z,9.54
2018-03-06T18:14:44.486Z,9.47
2018-03-06T18:17:13.265Z,9.39
2018-03-06T18:19:41.176Z,9.32
2018-03-06T18:22:09.240Z,9.34
2018-03-06T18:24:37.355Z,9.26
2018-03-06T18:27:05.214Z,9.03
2018-03-06T18:29:33.616Z,9.05
2018-03-06T18:32:05.454Z,9.13
2018-03-06T18:34:34.036Z,8.96
2018-03-06T18:37:02.107Z,8.97
2018-03-06T18:39:29.935Z,9.00
2018-03-06T18:41:57.841Z,8.99
2018-03-06T18:44:25.912Z,8.98
2018-03-06T18:46:54.086Z,9.00
2018-03-06T18:49:22.482Z,8.87
2018-03-06T18:51:50.391Z,8.97
2018-03-06T18:54:18.283Z,8.72
2018-03-06T18:56:46.268Z,8.85
2018-03-06T18:59:14.544Z,8.81
2018-03-06T19:02:16.283Z,8.86
2018-03-06T19:04:55.966Z,8.85
2018-03-06T19:07:24.389Z,8.72
2018-03-06T19:09:53.114Z,8.72
2018-03-06T19:12:21.500Z,8.63
2018-03-06T19:14:49.361Z,8.60
2018-03-06T19:17:17.330Z,8.45
2018-03-06T19:19:45.503Z,8.37
2018-03-06T19:22:13.339Z,8.32
2018-03-06T19:24:41.507Z,8.37
2018-03-06T19:27:10.265Z,8.27
2018-03-06T19:29:38.197Z,8.36
2018-03-06T19:32:06.270Z,8.28
2018-03-06T19:34:34.137Z,8.24
2018-03-06T19:37:02.105Z,8.43
2018-03-06T19:42:02.035Z,8.35
2018-03-06T19:44:30.644Z,8.35
2018-03-06T19:46:58.588Z,8.27
2018-03-06T19:49:27.025Z,8.26
2018-03-06T19:51:55.056Z,8.20
2018-03-06T19:54:23.213Z,8.10
2018-03-06T19:56:51.896Z,8.18
2018-03-06T19:59:19.763Z,8.04
2018-03-06T20:01:48.807Z,8.22
2018-03-06T20:04:16.726Z,8.33
2018-03-06T20:06:45.138Z,8.27
2018-03-06T20:09:13.056Z,8.23
2018-03-06T20:11:40.898Z,8.31
2018-03-06T20:14:08.827Z,8.42
2018-03-06T20:16:36.796Z,8.52
2018-03-06T20:19:10.876Z,8.53
2018-03-06T20:21:39.880Z,8.62
2018-03-06T20:27:11.863Z,8.98
2018-03-06T20:29:40.346Z,9.09
2018-03-06T20:32:13.862Z,9.09
2018-03-06T20:34:41.913Z,8.96
2018-03-06T20:37:09.903Z,8.93
2018-03-06T20:39:43.398Z,9.11
2018-03-06T20:42:11.769Z,9.34
2018-03-06T20:44:39.656Z,9.27
2018-03-06T20:47:13.078Z,9.21
2018-03-06T20:49:40.950Z,9.38
2018-03-06T20:52:09.781Z,9.45
2018-03-06T20:54:43.485Z,9.41
2018-03-06T20:57:11.452Z,9.49
2018-03-06T20:59:39.319Z,9.63
2018-03-06T21:02:07.185Z,9.51
2018-03-06T21:04:35.051Z,9.61
2018-03-06T21:07:03.024Z,9.66
2018-03-06T21:09:31.391Z,9.76
2018-03-06T21:11:59.368Z,9.80
2018-03-06T21:14:27.749Z,9.62
2018-03-06T21:16:55.983Z,9.63
2018-03-06T21:19:25.292Z,9.68
2018-03-06T21:21:53.189Z,9.55
2018-03-06T21:24:21.259Z,9.60
2018-03-06T21:26:49.399Z,9.52
2018-03-06T21:29:17.307Z,9.61
2018-03-06T21:31:45.234Z,9.60
2018-03-06T21:34:13.100Z,9.40
2018-03-06T21:36:41.002Z,9.54
2018-03-06T21:39:08.869Z,9.54
2018-03-06T21:41:36.704Z,9.20
2018-03-06T21:44:05.116Z,9.42
2018-03-06T21:46:32.981Z,9.43
2018-03-06T21:49:01.227Z,9.42
2018-03-06T21:51:29.225Z,9.44
2018-03-06T21:53:57.194Z,9.39
2018-03-06T21:56:25.167Z,9.39
2018-03-06T21:58:53.150Z,9.49
2018-03-06T22:01:21.002Z,9.50
2018-03-06T22:03:49.852Z,9.54
2018-03-06T22:06:17.697Z,9.45
2018-03-06T22:08:45.728Z,9.57
2018-03-06T22:11:14.308Z,9.53
2018-03-06T22:13:42.594Z,9.49
2018-03-06T22:16:10.453Z,9.14
2018-03-06T22:18:38.426Z,9.09
2018-03-06T22:21:06.663Z,9.27
2018-03-06T22:23:35.049Z,9.43
2018-03-06T22:26:03.477Z,9.16
2018-03-06T22:28:31.535Z,9.16
2018-03-06T22:30:59.493Z,9.36
2018-03-06T22:33:27.329Z,9.37
2018-03-06T22:35:59.527Z,9.29
2018-03-06T22:38:27.409Z,9.35
2018-03-06T22:40:55.331Z,9.29
2018-03-06T22:43:23.344Z,9.37
2018-03-06T22:45:51.287Z,9.34
2018-03-06T22:48:19.083Z,9.02
2018-03-06T22:50:46.894Z,9.18
2018-03-06T22:53:15.061Z,9.21
2018-03-06T22:55:42.631Z,9.16
2018-03-06T22:58:10.531Z,9.14
2018-03-06T23:00:38.831Z,9.17
2018-03-06T23:03:06.421Z,9.06
2018-03-06T23:05:35.465Z,9.03
2018-03-06T23:08:03.033Z,9.17
2018-03-06T23:10:30.883Z,9.06
2018-03-06T23:12:58.754Z,8.93
2018-03-06T23:15:26.954Z,8.85
2018-03-06T23:17:54.862Z,8.75
2018-03-06T23:20:22.866Z,8.78
2018-03-06T23:22:50.410Z,8.92
2018-03-06T23:25:17.958Z,8.68
2018-03-06T23:27:45.646Z,8.72
2018-03-06T23:30:13.490Z,8.89
2018-03-06T23:32:41.004Z,8.70
2018-03-06T23:35:08.523Z,8.79
2018-03-06T23:37:36.077Z,8.37
2018-03-06T23:40:03.598Z,8.35
2018-03-06T23:42:31.436Z,8.68
2018-03-06T23:44:58.953Z,8.63
2018-03-06T23:47:26.471Z,8.61
2018-03-06T23:49:54.026Z,8.58
2018-03-06T23:52:21.631Z,8.69
2018-03-06T23:54:49.187Z,8.58
2018-03-06T23:57:16.717Z,8.39
2018-03-06T23:59:44.242Z,8.63
